Time;durP1;ratioP1;P1;durP2;ratioP2;P2;SDS_P1;SDS_P2;PMS_P1;PMS_P2;Temp;Humidity;BMP_temperature;BMP_pressure;BME280_temperature;BME280_humidity;BME280_pressure;Samples;Min_cycle;Max_cycle;Signal;HPM_P1;HPM_P2
2022/12/03 00:01:57;;;;;;;26.55;15.45;;;;;;;6.94;54.94;102233.78;4918060;29;20054;-69
2022/12/03 00:04:25;;;;;;;26.90;16.35;;;;;;;6.92;54.85;102227.59;4933695;29;20055;-69
2022/12/03 00:06:52;;;;;;;25.90;15.48;;;;;;;6.92;54.93;102226.75;4916848;29;20039;-68
2022/12/03 00:09:19;;;;;;;25.90;16.27;;;;;;;6.92;54.93;102224.06;4917490;29;20138;-69
2022/12/03 00:11:45;;;;;;;27.55;16.90;;;;;;;6.90;55.03;102224.13;4916321;29;20432;-69
2022/12/03 00:14:12;;;;;;;27.80;17.02;;;;;;;6.90;54.94;102223.25;4918448;29;20040;-68
2022/12/03 00:16:38;;;;;;;27.67;16.38;;;;;;;6.92;54.96;102216.06;4923276;29;20515;-68
2022/12/03 00:19:06;;;;;;;27.92;17.42;;;;;;;6.92;55.09;102216.94;4915646;29;20066;-68
2022/12/03 00:21:33;;;;;;;26.95;17.08;;;;;;;6.93;54.93;102217.81;4934009;29;20058;-69
2022/12/03 00:24:04;;;;;;;27.52;17.67;;;;;;;6.95;54.91;102219.50;4930550;29;20044;-69
2022/12/03 00:26:31;;;;;;;26.45;17.10;;;;;;;6.96;55.00;102215.91;4918882;29;20147;-69
2022/12/03 00:28:57;;;;;;;28.92;17.98;;;;;;;6.98;55.02;102219.38;4932180;29;20035;-70
2022/12/03 00:31:24;;;;;;;27.63;17.67;;;;;;;6.98;55.27;102207.84;4936001;29;20048;-70
2022/12/03 00:33:52;;;;;;;31.75;17.67;;;;;;;6.96;54.91;102202.53;4934661;29;20567;-70
2022/12/03 00:36:18;;;;;;;28.52;17.58;;;;;;;6.97;55.12;102204.28;4927214;29;20048;-70
2022/12/03 00:38:45;;;;;;;28.70;17.70;;;;;;;6.98;54.93;102198.03;4916120;29;20099;-70
2022/12/03 00:41:11;;;;;;;25.58;17.02;;;;;;;6.99;55.09;102202.44;4902244;29;20049;-70
2022/12/03 00:43:38;;;;;;;30.45;18.70;;;;;;;7.01;55.15;102202.38;4901218;29;20080;-70
2022/12/03 00:46:05;;;;;;;26.25;16.92;;;;;;;7.02;55.22;102201.47;4916847;29;20054;-70
2022/12/03 00:48:31;;;;;;;30.50;18.92;;;;;;;7.03;55.13;102205.88;4904718;29;20048;-70
2022/12/03 00:50:58;;;;;;;32.70;18.55;;;;;;;7.03;55.13;102205.00;4881340;29;20415;-70
2022/12/03 00:53:25;;;;;;;29.92;17.83;;;;;;;7.03;55.04;102199.66;4925666;29;20490;-70
2022/12/03 00:55:51;;;;;;;30.58;18.35;;;;;;;7.01;55.15;102199.72;4924463;29;20088;-70
2022/12/03 00:58:18;;;;;;;28.23;18.38;;;;;;;6.99;55.01;102198.91;4916034;29;20100;-69
2022/12/03 01:00:45;;;;;;;28.98;17.90;;;;;;;6.98;55.29;102200.69;4922687;29;20051;-70
2022/12/03 01:03:12;;;;;;;29.80;18.73;;;;;;;6.98;55.07;102197.16;4916172;29;20100;-69
2022/12/03 01:05:38;;;;;;;33.28;18.25;;;;;;;6.98;55.20;102199.81;4929561;29;20054;-69
2022/12/03 01:08:05;;;;;;;29.30;18.25;;;;;;;6.98;55.06;102203.38;4933317;29;20083;-69
2022/12/03 01:10:31;;;;;;;31.27;19.25;;;;;;;6.97;55.20;102204.28;4923432;29;20517;-70
2022/12/03 01:12:58;;;;;;;30.60;19.33;;;;;;;6.98;55.19;102202.50;4925721;29;20059;-69
2022/12/03 01:15:24;;;;;;;31.90;19.92;;;;;;;6.97;55.14;102208.75;4935564;29;20047;-71
2022/12/03 01:17:53;;;;;;;27.23;17.55;;;;;;;6.96;55.13;102202.53;4920686;29;20388;-70
2022/12/03 01:20:19;;;;;;;30.10;18.42;;;;;;;6.96;55.20;102209.69;4939038;29;20118;-70
2022/12/03 01:22:46;;;;;;;30.58;18.30;;;;;;;6.94;55.26;102203.53;4938898;29;20062;-71
2022/12/03 01:25:13;;;;;;;31.13;19.02;;;;;;;6.95;55.27;102207.94;4936999;29;20052;-70
2022/12/03 01:27:39;;;;;;;29.33;18.63;;;;;;;6.96;55.30;102204.34;4936767;29;20043;-71
2022/12/03 01:30:07;;;;;;;29.40;18.75;;;;;;;6.98;55.35;102202.50;4925631;29;20060;-70
2022/12/03 01:32:34;;;;;;;31.20;18.48;;;;;;;7.01;55.34;102205.06;4900923;29;20055;-68
2022/12/03 01:35:00;;;;;;;29.92;18.38;;;;;;;7.03;55.24;102205.00;4901336;29;20049;-68
2022/12/03 01:37:27;;;;;;;30.25;19.42;;;;;;;7.01;55.29;102202.38;4906617;29;20040;-69
2022/12/03 01:39:54;;;;;;;30.25;19.83;;;;;;;6.99;55.30;102199.78;4937664;29;20040;-69
2022/12/03 01:42:24;;;;;;;34.35;18.50;;;;;;;6.97;55.34;102203.41;4936760;29;20103;-69
2022/12/03 01:44:55;;;;;;;31.38;19.52;;;;;;;6.96;55.14;102204.34;4923688;29;20091;-69
2022/12/03 01:47:28;;;;;;;30.08;18.55;;;;;;;6.95;55.31;102197.25;4931450;29;20040;-69
2022/12/03 01:50:14;;;;;;;31.95;19.65;;;;;;;6.96;55.34;102196.34;4920066;29;20095;-69
2022/12/03 01:52:41;;;;;;;30.58;20.25;;;;;;;6.98;55.24;102187.34;4921991;29;20036;-69
2022/12/03 01:55:14;;;;;;;30.63;20.00;;;;;;;7.00;55.30;102193.50;4937205;29;20055;-69
2022/12/03 01:57:46;;;;;;;30.88;19.75;;;;;;;7.01;55.26;102197.03;4924748;29;20040;-69
2022/12/03 02:00:19;;;;;;;34.97;20.15;;;;;;;7.00;55.30;102196.16;4917204;29;20052;-69
2022/12/03 02:02:49;;;;;;;31.48;18.88;;;;;;;7.00;55.35;102192.63;4900234;29;20052;-69
2022/12/03 02:05:20;;;;;;;32.40;19.65;;;;;;;6.98;55.32;102190.00;4919047;29;20044;-69
2022/12/03 02:07:47;;;;;;;30.90;18.50;;;;;;;6.99;55.27;102190.88;4913130;29;20560;-69
2022/12/03 02:10:16;;;;;;;30.70;19.42;;;;;;;6.98;55.40;102192.69;4909320;29;20406;-67
2022/12/03 02:12:49;;;;;;;33.63;20.48;;;;;;;6.99;55.38;102189.09;4918152;29;20124;-69
2022/12/03 02:15:16;;;;;;;30.25;19.58;;;;;;;6.96;55.35;102186.53;4938124;29;20127;-69
2022/12/03 02:17:43;;;;;;;32.80;20.83;;;;;;;6.94;55.36;102190.16;4936836;29;20491;-70
2022/12/03 02:20:11;;;;;;;30.63;18.92;;;;;;;6.94;55.31;102185.69;4929422;29;20114;-69
2022/12/03 02:22:43;;;;;;;30.60;19.70;;;;;;;6.96;55.35;102191.00;4917984;29;20048;-68
2022/12/03 02:25:14;;;;;;;30.30;19.63;;;;;;;6.97;55.43;102193.59;4901298;29;20052;-69
2022/12/03 02:27:42;;;;;;;31.90;19.70;;;;;;;6.95;55.43;102195.47;4917709;29;20564;-69
2022/12/03 02:30:09;;;;;;;31.00;19.65;;;;;;;6.94;55.32;102185.69;4918316;29;20098;-69
2022/12/03 02:32:36;;;;;;;32.90;20.75;;;;;;;6.94;55.36;102193.72;4918028;29;20060;-69
2022/12/03 02:35:03;;;;;;;32.72;20.40;;;;;;;6.93;55.34;102185.75;4916892;29;20047;-69
2022/12/03 02:37:35;;;;;;;32.92;19.58;;;;;;;6.91;55.37;102185.81;4936608;29;20047;-68
2022/12/03 02:40:07;;;;;;;33.78;19.73;;;;;;;6.91;55.28;102177.78;4928845;29;20044;-69
2022/12/03 02:42:33;;;;;;;36.72;21.58;;;;;;;6.90;55.35;102175.19;4917562;29;20052;-69
2022/12/03 02:45:12;;;;;;;33.03;20.38;;;;;;;6.90;55.34;102170.72;4901835;29;20059;-68
2022/12/03 02:47:50;;;;;;;29.45;18.90;;;;;;;6.91;55.23;102166.25;4917884;29;20190;-69
2022/12/03 02:50:22;;;;;;;31.40;20.17;;;;;;;6.91;55.35;102167.13;4918622;29;20056;-70
2022/12/03 02:52:52;;;;;;;31.90;19.55;;;;;;;6.90;55.28;102168.03;4927950;29;20123;-70
2022/12/03 02:55:20;;;;;;;32.20;19.98;;;;;;;6.88;55.31;102169.03;4919579;29;20384;-69
2022/12/03 02:57:49;;;;;;;30.45;19.73;;;;;;;6.88;55.50;102166.34;4935064;29;20079;-69
2022/12/03 03:00:17;;;;;;;30.58;20.35;;;;;;;6.89;55.37;102165.41;4918334;29;20048;-69
2022/12/03 03:02:45;;;;;;;35.85;21.60;;;;;;;6.89;55.52;102168.09;4917231;29;20095;-69
2022/12/03 03:05:14;;;;;;;31.52;19.92;;;;;;;6.89;55.33;102162.75;4918146;29;20406;-69
2022/12/03 03:07:41;;;;;;;32.88;19.75;;;;;;;6.88;55.45;102161.88;4932615;29;20040;-70
2022/12/03 03:10:11;;;;;;;34.22;21.15;;;;;;;6.89;55.35;102165.41;4920491;29;20070;-70
2022/12/03 03:12:38;;;;;;;36.78;21.95;;;;;;;6.90;55.52;102167.16;4928415;29;20044;-69
2022/12/03 03:15:06;;;;;;;32.90;20.15;;;;;;;6.89;55.40;102163.63;4900670;29;20052;-70
2022/12/03 03:17:33;;;;;;;31.73;19.58;;;;;;;6.89;55.38;102166.28;4932254;29;20479;-71
2022/12/03 03:20:01;;;;;;;31.75;20.88;;;;;;;6.89;55.50;102171.63;4936879;29;20047;-70
2022/12/03 03:22:39;;;;;;;30.10;19.83;;;;;;;6.91;55.45;102169.78;4935955;29;20399;-70
2022/12/03 03:25:09;;;;;;;31.33;20.10;;;;;;;6.92;55.51;102162.66;4928436;29;20044;-70
2022/12/03 03:27:37;;;;;;;32.72;19.63;;;;;;;6.91;55.47;102159.09;4904263;29;20064;-70
2022/12/03 03:30:05;;;;;;;33.70;20.25;;;;;;;6.90;55.50;102154.69;4925919;29;20051;-70
2022/12/03 03:32:32;;;;;;;32.70;19.52;;;;;;;6.90;55.57;102152.00;4922933;29;20044;-70
2022/12/03 03:34:59;;;;;;;32.88;20.10;;;;;;;6.91;55.48;102145.75;4917007;29;20400;-71
2022/12/03 03:37:27;;;;;;;33.13;19.40;;;;;;;6.95;55.50;102146.50;4922154;29;20043;-70
2022/12/03 03:39:54;;;;;;;31.85;20.55;;;;;;;6.95;55.46;102146.50;4933142;29;20054;-69
2022/12/03 03:42:21;;;;;;;32.03;19.98;;;;;;;6.95;55.44;102142.03;4917551;29;20047;-70
2022/12/03 03:44:48;;;;;;;30.65;19.45;;;;;;;6.96;55.51;102140.25;4917726;29;20051;-70
2022/12/03 03:47:16;;;;;;;29.60;20.27;;;;;;;6.95;55.46;102138.50;4917623;29;20044;-70
2022/12/03 03:49:43;;;;;;;29.35;19.73;;;;;;;6.92;55.42;102134.13;4936307;29;20173;-70
2022/12/03 03:52:10;;;;;;;33.08;19.55;;;;;;;6.91;55.45;102134.19;4917230;29;20047;-70
2022/12/03 03:54:38;;;;;;;32.63;21.05;;;;;;;6.90;55.47;102127.09;4898551;29;20044;-70
2022/12/03 03:57:04;;;;;;;32.55;21.38;;;;;;;6.88;55.35;102135.19;4922859;29;20040;-71
2022/12/03 03:59:31;;;;;;;34.75;21.02;;;;;;;6.88;55.59;102129.84;4917215;29;20496;-69
2022/12/03 04:01:57;;;;;;;34.17;21.02;;;;;;;6.89;55.63;102133.38;4915865;29;20048;-69
2022/12/03 04:04:33;;;;;;;29.33;19.80;;;;;;;6.88;55.52;102137.84;4915633;29;20059;-69
2022/12/03 04:07:00;;;;;;;31.10;20.50;;;;;;;6.90;55.58;102130.66;4917422;29;20454;-70
2022/12/03 04:09:27;;;;;;;34.90;21.42;;;;;;;6.92;55.51;102134.13;4917111;29;20384;-69
2022/12/03 04:14:40;;;;;;;32.35;20.88;;;;;;;6.90;55.57;102127.97;4917379;29;20044;-69
2022/12/03 04:17:06;;;;;;;30.67;19.90;;;;;;;6.90;55.57;102127.09;4916544;29;20044;-69
2022/12/03 04:19:33;;;;;;;32.33;21.73;;;;;;;6.89;55.57;102130.72;4915400;29;20045;-69
2022/12/03 04:24:44;;;;;;;34.13;21.45;;;;;;;6.87;55.54;102135.22;4916505;29;20044;-69
2022/12/03 04:29:56;;;;;;;31.10;20.35;;;;;;;6.85;55.61;102131.75;4932814;29;20047;-71
2022/12/03 04:37:53;;;;;;;;;;;;;;;6.81;55.75;102139.00;4936408;29;20040;-70
2022/12/03 04:43:05;;;;;;;39.20;21.90;;;;;;;6.84;55.65;102130.88;4935966;29;20055;-70
2022/12/03 04:45:31;;;;;;;34.17;21.02;;;;;;;6.84;55.68;102141.56;4935932;29;20402;-70
2022/12/03 04:47:58;;;;;;;32.92;21.88;;;;;;;6.81;55.67;102140.78;4935406;29;20048;-70
2022/12/03 04:50:24;;;;;;;37.90;23.60;;;;;;;6.79;55.62;102137.28;4936978;29;20103;-70
2022/12/03 04:52:51;;;;;;;37.90;22.92;;;;;;;6.79;55.80;102132.81;4936947;29;20126;-69
2022/12/03 04:55:17;;;;;;;39.28;22.85;;;;;;;6.77;55.85;102126.66;4938525;29;20059;-70
2022/12/03 04:57:44;;;;;;;39.65;23.55;;;;;;;6.76;55.76;102132.06;4938006;29;20054;-70
2022/12/03 05:00:11;;;;;;;39.22;24.25;;;;;;;6.75;55.78;102127.66;4933417;29;20515;-69
2022/12/03 05:02:38;;;;;;;37.70;23.35;;;;;;;6.74;55.87;102132.13;4924955;29;20036;-70
2022/12/03 05:05:05;;;;;;;39.58;23.30;;;;;;;6.71;55.88;102121.53;4928790;29;20044;-69
2022/12/03 05:07:31;;;;;;;40.75;24.40;;;;;;;6.69;55.85;102126.06;4919265;29;20435;-70
2022/12/03 05:09:58;;;;;;;40.13;24.02;;;;;;;6.67;55.93;102119.88;4935736;29;20054;-70
2022/12/03 05:12:24;;;;;;;40.72;24.70;;;;;;;6.67;56.08;102119.88;4933836;29;20047;-70
2022/12/03 05:14:54;;;;;;;37.58;23.15;;;;;;;6.65;56.00;102121.72;4903357;29;20044;-70
2022/12/03 05:17:21;;;;;;;40.80;24.23;;;;;;;6.67;56.17;102122.53;4899561;29;20408;-70
2022/12/03 05:22:33;;;;;;;38.80;22.87;;;;;;;6.70;56.01;102119.81;4919146;29;20093;-71
2022/12/03 05:24:59;;;;;;;38.40;23.55;;;;;;;6.70;56.11;102114.47;4920087;29;20119;-69
2022/12/03 05:27:26;;;;;;;42.17;24.23;;;;;;;6.72;56.04;102119.75;4920034;29;20495;-69
2022/12/03 05:29:52;;;;;;;36.58;22.38;;;;;;;6.73;56.05;102114.34;4934515;29;20078;-69
2022/12/03 05:32:19;;;;;;;42.70;24.60;;;;;;;6.76;56.26;102114.25;4924036;29;20043;-69
2022/12/03 05:34:46;;;;;;;40.25;23.98;;;;;;;6.76;56.09;102114.25;4937592;29;20075;-70
2022/12/03 05:37:12;;;;;;;37.28;23.20;;;;;;;6.77;56.13;102109.78;4924059;29;20036;-69
2022/12/03 05:39:39;;;;;;;38.97;22.85;;;;;;;6.77;56.14;102107.97;4929823;29;20062;-70
2022/12/03 05:44:50;;;;;;;41.58;24.17;;;;;;;6.76;56.18;102103.56;4937242;29;20554;-71
2022/12/03 05:47:17;;;;;;;39.20;23.77;;;;;;;6.77;56.22;102097.31;4921524;29;20044;-69
2022/12/03 05:49:43;;;;;;;38.65;23.17;;;;;;;6.75;56.11;102100.94;4937448;29;20048;-70
2022/12/03 05:52:10;;;;;;;43.33;24.65;;;;;;;6.73;56.25;102103.69;4936456;29;20047;-69
2022/12/03 05:54:37;;;;;;;38.95;23.17;;;;;;;6.72;56.21;102096.59;4938794;29;20044;-69
2022/12/03 05:57:03;;;;;;;40.03;23.85;;;;;;;6.71;56.14;102097.53;4937704;29;20086;-70
2022/12/03 05:59:30;;;;;;;41.95;23.73;;;;;;;6.69;56.17;102092.22;4883647;29;20092;-70
2022/12/03 06:01:56;;;;;;;42.95;25.02;;;;;;;6.68;56.28;102101.13;4934910;29;20071;-69
2022/12/03 06:04:23;;;;;;;42.47;24.40;;;;;;;6.69;56.18;102097.56;4938497;29;20047;-70
2022/12/03 06:06:49;;;;;;;38.33;23.10;;;;;;;6.68;56.29;102100.25;4924405;29;20044;-69
2022/12/03 06:09:16;;;;;;;41.05;22.88;;;;;;;6.69;56.31;102099.38;4921485;29;20044;-70
2022/12/03 06:11:42;;;;;;;38.47;22.50;;;;;;;6.70;56.37;102098.44;4900366;29;20070;-70
2022/12/03 06:14:09;;;;;;;37.53;22.88;;;;;;;6.72;56.35;102093.91;4919135;29;20078;-70
2022/12/03 06:16:35;;;;;;;35.67;21.58;;;;;;;6.75;56.38;102100.94;4911258;29;20100;-69
2022/12/03 06:19:02;;;;;;;42.13;23.85;;;;;;;6.75;56.41;102091.16;4910299;29;20068;-70
2022/12/03 06:21:28;;;;;;;39.03;24.15;;;;;;;6.74;56.26;102102.75;4932396;29;20047;-70
2022/12/03 06:23:55;;;;;;;39.80;22.83;;;;;;;6.73;56.43;102095.66;4938007;29;20514;-70
2022/12/03 06:26:21;;;;;;;39.17;23.15;;;;;;;6.72;56.33;102090.38;4938093;29;20051;-69
2022/12/03 06:28:48;;;;;;;37.28;23.52;;;;;;;6.69;56.31;102092.22;4936333;29;20418;-69
2022/12/03 06:31:14;;;;;;;37.13;22.27;;;;;;;6.68;56.39;102090.47;4932226;29;20068;-69
2022/12/03 06:33:41;;;;;;;36.90;23.33;;;;;;;6.69;56.38;102091.38;4923518;29;20132;-69
2022/12/03 06:36:08;;;;;;;34.72;21.63;;;;;;;6.67;56.30;102088.72;4918236;29;20453;-70
2022/12/03 06:38:34;;;;;;;41.40;23.55;;;;;;;6.69;56.31;102088.69;4915976;29;20037;-69
2022/12/03 06:41:01;;;;;;;42.83;22.70;;;;;;;6.69;56.30;102083.34;4923126;29;20048;-70
2022/12/03 06:43:29;;;;;;;38.63;21.27;;;;;;;6.68;56.41;102084.25;4936629;29;20558;-69
2022/12/03 06:45:56;;;;;;;34.92;21.50;;;;;;;6.70;56.45;102087.75;4936384;29;20043;-69
2022/12/03 06:48:22;;;;;;;34.88;20.77;;;;;;;6.69;56.37;102081.56;4932143;29;20047;-69
2022/12/03 06:50:50;;;;;;;35.83;21.00;;;;;;;6.73;56.38;102086.78;4912793;29;20036;-69
2022/12/03 06:53:32;;;;;;;35.63;20.70;;;;;;;6.73;56.41;102085.00;4905396;29;20095;-69
2022/12/03 06:55:58;;;;;;;34.97;20.08;;;;;;;6.73;56.36;102089.47;4936761;29;20050;-70
2022/12/03 06:58:25;;;;;;;33.17;20.25;;;;;;;6.72;56.27;102087.72;4932641;29;20462;-68
2022/12/03 07:00:51;;;;;;;37.25;22.05;;;;;;;6.72;56.27;102093.06;4930634;29;20046;-69
2022/12/03 07:03:18;;;;;;;35.50;21.15;;;;;;;6.72;56.36;102079.69;4908207;29;20495;-69
2022/12/03 07:05:45;;;;;;;32.03;19.27;;;;;;;6.71;56.30;102084.16;4900202;29;20507;-69
2022/12/03 07:08:11;;;;;;;33.55;19.60;;;;;;;6.70;56.29;102085.09;4917683;29;20407;-68
2022/12/03 07:10:38;;;;;;;36.05;20.65;;;;;;;6.69;56.21;102086.03;4917934;29;20059;-69
2022/12/03 07:13:04;;;;;;;32.28;19.92;;;;;;;6.70;56.29;102095.78;4918775;29;20101;-69
2022/12/03 07:15:31;;;;;;;33.63;20.67;;;;;;;6.68;56.32;102085.13;4936927;29;20043;-69
2022/12/03 07:17:57;;;;;;;30.83;19.08;;;;;;;6.69;56.29;102094.91;4918160;29;20040;-69
2022/12/03 07:20:24;;;;;;;33.10;19.65;;;;;;;6.72;56.29;102093.91;4918020;29;20087;-70
2022/12/03 07:22:52;;;;;;;32.25;20.00;;;;;;;6.72;56.35;102085.91;4900628;29;20056;-69
2022/12/03 07:25:19;;;;;;;38.30;20.60;;;;;;;6.71;56.25;102088.63;4899318;29;20542;-69
2022/12/03 07:27:49;;;;;;;32.80;20.42;;;;;;;6.71;56.24;102083.31;4917953;29;20110;-69
2022/12/03 07:30:16;;;;;;;34.00;20.10;;;;;;;6.72;56.26;102085.91;4899926;29;20041;-70
2022/12/03 07:32:43;;;;;;;34.20;20.13;;;;;;;6.72;56.23;102091.25;4917640;29;20055;-70
2022/12/03 07:35:09;;;;;;;34.90;20.52;;;;;;;6.71;56.26;102089.50;4917813;29;20402;-70
2022/12/03 07:37:36;;;;;;;34.45;21.05;;;;;;;6.69;56.25;102084.22;4917746;29;20040;-70
2022/12/03 07:40:04;;;;;;;35.00;19.70;;;;;;;6.68;56.22;102084.25;4916603;29;20403;-70
2022/12/03 07:42:30;;;;;;;34.80;20.52;;;;;;;6.68;56.18;102085.13;4917123;29;20048;-70
2022/12/03 07:44:57;;;;;;;35.17;20.70;;;;;;;6.67;56.27;102083.38;4917446;29;20032;-70
2022/12/03 07:47:23;;;;;;;34.90;21.05;;;;;;;6.68;56.25;102082.44;4917294;29;20100;-69
2022/12/03 07:49:50;;;;;;;32.90;19.50;;;;;;;6.69;56.31;102091.38;4915890;29;20554;-69
2022/12/03 07:52:16;;;;;;;32.50;20.05;;;;;;;6.71;56.28;102088.63;4898225;29;20045;-69
2022/12/03 07:54:43;;;;;;;35.97;19.98;;;;;;;6.70;56.23;102090.44;4898261;29;20049;-69
2022/12/03 07:57:09;;;;;;;34.53;18.98;;;;;;;6.69;56.18;102086.03;4898295;29;20048;-70
2022/12/03 07:59:37;;;;;;;33.63;20.02;;;;;;;6.69;56.30;102091.38;4898320;29;20052;-69
2022/12/03 08:02:04;;;;;;;38.03;21.75;;;;;;;6.66;56.21;102088.75;4911884;29;20564;-70
2022/12/03 08:04:30;;;;;;;38.45;20.80;;;;;;;6.63;56.25;102091.53;4917376;29;20103;-69
2022/12/03 08:06:57;;;;;;;32.47;18.88;;;;;;;6.61;56.28;102094.25;4916986;29;20063;-70
2022/12/03 08:09:23;;;;;;;36.95;20.50;;;;;;;6.63;56.22;102097.75;4916910;29;20048;-70
2022/12/03 08:11:50;;;;;;;35.67;20.90;;;;;;;6.63;56.17;102099.56;4917135;29;20040;-69
2022/12/03 08:14:19;;;;;;;37.72;21.02;;;;;;;6.63;56.22;102102.22;4917159;29;20563;-69
2022/12/03 08:16:46;;;;;;;38.47;21.50;;;;;;;6.61;56.30;102099.59;4916720;29;20047;-70
2022/12/03 08:19:15;;;;;;;37.83;21.27;;;;;;;6.62;55.79;102093.34;4916369;29;20103;-69
2022/12/03 08:21:41;;;;;;;34.45;20.55;;;;;;;6.62;56.27;102096.00;4916678;29;20398;-70
2022/12/03 08:24:17;;;;;;;35.40;21.25;;;;;;;6.63;56.08;102099.56;4916996;29;20040;-69
2022/12/03 08:26:45;;;;;;;38.58;22.42;;;;;;;6.63;56.20;102091.53;4922560;29;20048;-70
2022/12/03 08:29:16;;;;;;;37.00;21.35;;;;;;;6.63;56.10;102105.75;4923181;29;20040;-69
2022/12/03 08:31:55;;;;;;;39.53;20.83;;;;;;;6.64;56.03;102098.63;4933011;29;20056;-64
2022/12/03 08:34:26;;;;;;;52.35;23.20;;;;;;;6.64;56.13;102104.84;4942067;29;20056;-64
2022/12/03 08:37:04;;;;;;;41.10;23.45;;;;;;;6.63;55.96;102104.88;4929899;29;20054;-65
2022/12/03 08:39:33;;;;;;;41.17;21.75;;;;;;;6.60;56.01;102099.66;4922058;29;20040;-66
2022/12/03 08:44:48;;;;;;;40.53;22.73;;;;;;;6.59;55.95;102109.47;4904032;29;20044;-64
2022/12/03 08:47:19;;;;;;;41.08;22.88;;;;;;;6.59;56.07;102103.25;4903080;29;20056;-64
2022/12/03 08:49:54;;;;;;;45.25;24.38;;;;;;;6.59;55.75;102095.25;4904042;29;20045;-64
2022/12/03 08:52:25;;;;;;;39.25;22.55;;;;;;;6.61;55.96;102107.59;4902379;29;20053;-64
2022/12/03 08:54:55;;;;;;;44.53;23.25;;;;;;;6.61;55.90;102098.72;4902759;29;20049;-65
2022/12/03 08:57:33;;;;;;;41.65;22.52;;;;;;;6.61;55.90;102104.94;4902528;29;20045;-64
2022/12/03 09:00:19;;;;;;;42.15;23.13;;;;;;;6.63;55.81;102107.56;4902602;29;20415;-65
2022/12/03 09:02:51;;;;;;;46.30;23.05;;;;;;;6.66;55.93;102112.78;4901698;29;20056;-65
2022/12/03 09:05:21;;;;;;;44.17;23.15;;;;;;;6.67;55.87;102103.84;4901866;29;20522;-65
2022/12/03 09:07:47;;;;;;;43.88;23.48;;;;;;;6.64;55.87;102107.50;4902310;29;20040;-64
2022/12/03 09:10:14;;;;;;;43.67;23.60;;;;;;;6.64;55.89;102101.28;4902393;29;20045;-65
2022/12/03 09:12:41;;;;;;;47.65;24.27;;;;;;;6.63;55.80;102107.56;4902164;29;20040;-64
2022/12/03 09:15:08;;;;;;;42.22;23.50;;;;;;;6.64;55.89;102107.50;4902623;29;20515;-65
2022/12/03 09:17:34;;;;;;;43.33;23.13;;;;;;;6.63;55.65;102104.88;4903983;29;20048;-66
2022/12/03 09:20:01;;;;;;;42.17;21.95;;;;;;;6.62;55.80;102111.16;4903495;29;20048;-66
2022/12/03 09:22:27;;;;;;;42.45;22.80;;;;;;;6.62;55.82;102106.69;4922334;29;20127;-66
2022/12/03 09:24:54;;;;;;;45.03;22.42;;;;;;;6.63;55.79;102107.56;4922681;29;20119;-64
2022/12/03 09:27:21;;;;;;;39.83;22.65;;;;;;;6.64;55.75;102109.31;4911231;29;20072;-65
2022/12/03 09:29:49;;;;;;;43.17;22.70;;;;;;;6.65;55.73;102103.03;4903857;29;20044;-66
2022/12/03 09:32:16;;;;;;;40.67;21.67;;;;;;;6.66;55.84;102108.31;4903667;29;20048;-65
2022/12/03 09:34:44;;;;;;;45.03;22.02;;;;;;;6.66;55.69;102104.78;4903854;29;20055;-66
2022/12/03 09:37:10;;;;;;;45.10;23.08;;;;;;;6.65;55.79;102095.03;4914476;29;20124;-66
2022/12/03 09:39:37;;;;;;;42.10;22.60;;;;;;;6.65;55.69;102103.03;4916602;29;20044;-65
2022/12/03 09:42:04;;;;;;;42.58;22.35;;;;;;;6.63;56.06;102096.88;4900242;29;20496;-66
2022/12/03 09:44:33;;;;;;;39.90;23.08;;;;;;;6.66;55.72;102096.78;4900656;29;20498;-66
2022/12/03 09:47:04;;;;;;;40.53;22.08;;;;;;;6.67;55.78;102096.72;4915528;29;20040;-66
2022/12/03 09:49:34;;;;;;;44.85;23.52;;;;;;;6.71;55.77;102094.84;4919445;29;20052;-65
2022/12/03 09:52:04;;;;;;;41.63;22.15;;;;;;;6.72;55.79;102082.38;4918881;29;20116;-65
2022/12/03 09:54:31;;;;;;;39.58;20.92;;;;;;;6.70;55.51;102085.09;4919299;29;20048;-65
2022/12/03 09:57:01;;;;;;;35.67;20.00;;;;;;;6.68;55.83;102081.56;4919467;29;20051;-65
2022/12/03 09:59:32;;;;;;;34.67;19.27;;;;;;;6.65;55.48;102079.88;4919116;29;20519;-65
2022/12/03 10:02:00;;;;;;;32.15;17.80;;;;;;;6.63;55.38;102081.72;4917605;29;20038;-66
2022/12/03 10:04:28;;;;;;;29.38;17.20;;;;;;;6.58;55.37;102078.34;4917189;29;20488;-66
2022/12/03 10:06:57;;;;;;;28.30;16.45;;;;;;;6.57;55.20;102076.63;4916962;29;20051;-65
2022/12/03 10:09:26;;;;;;;51.65;18.40;;;;;;;6.56;55.28;102092.69;4917157;29;20048;-65
2022/12/03 10:11:54;;;;;;;29.10;16.83;;;;;;;6.59;55.32;102081.91;4916916;29;20052;-65
2022/12/03 10:14:21;;;;;;;25.58;14.90;;;;;;;6.60;55.21;102076.50;4920120;29;20130;-65
2022/12/03 10:16:47;;;;;;;24.52;15.15;;;;;;;6.61;54.89;102082.72;4937789;29;20040;-65
2022/12/03 10:19:27;;;;;;;22.65;14.40;;;;;;;6.59;54.84;102071.22;4921447;29;20058;-66
2022/12/03 10:21:58;;;;;;;25.92;14.30;;;;;;;6.59;54.80;102063.22;4918583;29;20091;-66
2022/12/03 10:24:27;;;;;;;21.15;13.65;;;;;;;6.58;54.74;102059.69;4902310;29;20044;-66
2022/12/03 10:27:20;;;;;;;21.25;12.88;;;;;;;6.55;54.62;102050.91;4918444;29;20044;-66
2022/12/03 10:29:57;;;;;;;22.67;13.57;;;;;;;6.55;54.64;102051.78;4918752;29;20104;-66
2022/12/03 10:32:42;;;;;;;23.65;13.38;;;;;;;6.54;54.57;102046.50;4918824;29;20051;-66
2022/12/03 10:35:12;;;;;;;22.13;13.97;;;;;;;6.56;54.64;102052.66;4918421;29;20052;-66
2022/12/03 10:37:58;;;;;;;21.35;13.93;;;;;;;6.53;54.47;102042.94;4918938;29;20044;-65
2022/12/03 10:40:27;;;;;;;23.38;14.00;;;;;;;6.54;54.46;102034.03;4917531;29;20492;-68
2022/12/03 10:43:17;;;;;;;24.73;14.73;;;;;;;6.54;54.48;102034.03;4918219;29;20048;-66
2022/12/03 10:46:02;;;;;;;21.52;13.15;;;;;;;6.56;54.44;102026.81;4901112;29;20056;-66
2022/12/03 10:48:30;;;;;;;;;;;;;;;6.59;54.48;102032.06;4918568;29;20127;-65
2022/12/03 10:51:19;;;;;;;22.77;13.82;;;;;;;6.64;54.53;102030.09;4917240;29;19934;-66
2022/12/03 10:53:48;;;;;;;24.83;13.80;;;;;;;6.65;54.40;102022.97;4918520;29;20136;-67
2022/12/03 10:56:24;;;;;;;24.35;15.07;;;;;;;6.65;54.46;102025.63;4901240;29;20052;-66
2022/12/03 10:58:51;;;;;;;24.35;13.88;;;;;;;6.67;54.33;102019.31;4918247;29;20059;-66
2022/12/03 11:01:22;;;;;;;23.88;14.13;;;;;;;6.68;54.42;102014.84;4918344;29;20137;-66
2022/12/03 11:03:49;;;;;;;25.02;15.85;;;;;;;6.68;54.37;102020.19;4918085;29;20048;-66
2022/12/03 11:06:21;;;;;;;23.00;15.43;;;;;;;6.67;54.24;102007.75;4918005;29;20044;-66
2022/12/03 11:08:50;;;;;;;27.25;15.93;;;;;;;6.67;54.22;102002.41;4918063;29;20059;-67
2022/12/03 11:11:27;;;;;;;26.60;15.35;;;;;;;6.67;54.25;102019.31;4918078;29;20569;-66
2022/12/03 11:13:59;;;;;;;24.45;16.20;;;;;;;6.66;54.13;102012.22;4917819;29;20503;-65
2022/12/03 11:16:37;;;;;;;30.48;17.15;;;;;;;6.66;54.22;102006.00;4917894;29;20403;-66
2022/12/03 11:19:16;;;;;;;29.55;15.85;;;;;;;6.65;54.24;101997.13;4917343;29;20047;-67
2022/12/03 11:22:04;;;;;;;27.52;15.70;;;;;;;6.66;54.22;101996.22;4900237;29;20044;-66
2022/12/03 11:24:36;;;;;;;23.63;14.95;;;;;;;6.67;54.14;101992.59;4901094;29;20095;-67
2022/12/03 11:27:02;;;;;;;25.50;16.00;;;;;;;6.69;54.11;101988.13;4917144;29;20044;-66
2022/12/03 11:29:52;;;;;;;25.70;16.30;;;;;;;6.72;54.11;101989.81;4917615;29;20048;-67
2022/12/03 11:32:37;;;;;;;26.55;16.25;;;;;;;6.72;54.02;101988.94;4917299;29;20044;-67
2022/12/03 11:35:24;;;;;;;25.15;15.85;;;;;;;6.72;54.03;101987.13;4917468;29;20135;-67
2022/12/03 11:37:51;;;;;;;29.45;16.85;;;;;;;6.70;53.92;101983.66;4917589;29;20076;-66
2022/12/03 11:40:17;;;;;;;31.98;17.40;;;;;;;6.70;53.88;101978.31;4917662;29;20459;-67
2022/12/03 11:42:46;;;;;;;26.10;16.67;;;;;;;6.72;53.92;101975.59;4917246;29;20106;-66
2022/12/03 11:45:32;;;;;;;26.67;16.67;;;;;;;6.75;53.99;101983.47;4917440;29;20040;-67
2022/12/03 11:47:58;;;;;;;26.73;16.85;;;;;;;6.77;54.03;101965.59;4917286;29;20496;-66
2022/12/03 11:50:33;;;;;;;27.10;17.52;;;;;;;6.79;53.97;101963.75;4916370;29;20119;-67